sensor_id;sensor_type;location;lat;lon;timestamp;temperature;humidity
11043;DHT22;5574;48.786;10.120;2024-03-02T00:00:38;7.10;99.90
11043;DHT22;5574;48.786;10.120;2024-03-02T00:03:07;7.10;99.90
11043;DHT22;5574;48.786;10.120;2024-03-02T00:05:34;7.10;99.90
11043;DHT22;5574;48.786;10.120;2024-03-02T00:08:01;7.10;99.90
11043;DHT22;5574;48.786;10.120;2024-03-02T00:10:36;7.10;99.90
11043;DHT22;5574;48.786;10.120;2024-03-02T00:13:05;7.10;99.90
11043;DHT22;5574;48.786;10.120;2024-03-02T00:15:46;7.10;99.90
11043;DHT22;5574;48.786;10.120;2024-03-02T00:18:15;7.10;99.90
11043;DHT22;5574;48.786;10.120;2024-03-02T00:20:42;7.10;99.90
11043;DHT22;5574;48.786;10.120;2024-03-02T00:23:10;7.20;99.90
11043;DHT22;5574;48.786;10.120;2024-03-02T00:25:40;7.20;99.90
11043;DHT22;5574;48.786;10.120;2024-03-02T00:28:14;7.10;99.90
11043;DHT22;5574;48.786;10.120;2024-03-02T00:30:54;7.20;99.90
11043;DHT22;5574;48.786;10.120;2024-03-02T00:33:21;7.10;99.90
11043;DHT22;5574;48.786;10.120;2024-03-02T00:35:49;7.10;99.90
11043;DHT22;5574;48.786;10.120;2024-03-02T00:38:15;7.10;99.90
11043;DHT22;5574;48.786;10.120;2024-03-02T00:40:43;7.10;99.90
11043;DHT22;5574;48.786;10.120;2024-03-02T00:46:05;7.10;99.90
11043;DHT22;5574;48.786;10.120;2024-03-02T00:48:32;7.10;99.90
11043;DHT22;5574;48.786;10.120;2024-03-02T00:51:01;7.10;99.90
11043;DHT22;5574;48.786;10.120;2024-03-02T00:53:29;7.10;99.90
11043;DHT22;5574;48.786;10.120;2024-03-02T00:55:56;7.10;99.90
11043;DHT22;5574;48.786;10.120;2024-03-02T00:58:23;7.10;99.90
11043;DHT22;5574;48.786;10.120;2024-03-02T01:00:50;7.00;99.90
11043;DHT22;5574;48.786;10.120;2024-03-02T01:03:18;7.10;99.90
11043;DHT22;5574;48.786;10.120;2024-03-02T01:05:45;7.00;99.90
11043;DHT22;5574;48.786;10.120;2024-03-02T01:08:12;7.00;99.90
11043;DHT22;5574;48.786;10.120;2024-03-02T01:10:39;7.00;99.90
11043;DHT22;5574;48.786;10.120;2024-03-02T01:13:05;7.00;99.90
11043;DHT22;5574;48.786;10.120;2024-03-02T01:15:33;7.00;99.90
11043;DHT22;5574;48.786;10.120;2024-03-02T01:18:00;7.00;99.90
11043;DHT22;5574;48.786;10.120;2024-03-02T01:20:28;7.00;99.90
11043;DHT22;5574;48.786;10.120;2024-03-02T01:22:54;7.00;99.90
11043;DHT22;5574;48.786;10.120;2024-03-02T01:25:21;7.00;99.90
11043;DHT22;5574;48.786;10.120;2024-03-02T01:27:48;7.00;99.90
11043;DHT22;5574;48.786;10.120;2024-03-02T01:30:14;6.90;99.90
11043;DHT22;5574;48.786;10.120;2024-03-02T01:32:41;7.00;99.90
11043;DHT22;5574;48.786;10.120;2024-03-02T01:35:08;6.90;99.90
11043;DHT22;5574;48.786;10.120;2024-03-02T01:37:36;6.90;99.90
11043;DHT22;5574;48.786;10.120;2024-03-02T01:40:03;6.90;99.90
11043;DHT22;5574;48.786;10.120;2024-03-02T01:42:35;7.00;99.90
11043;DHT22;5574;48.786;10.120;2024-03-02T01:45:02;6.90;99.90
11043;DHT22;5574;48.786;10.120;2024-03-02T01:47:29;6.90;99.90
11043;DHT22;5574;48.786;10.120;2024-03-02T01:49:55;6.90;99.90
11043;DHT22;5574;48.786;10.120;2024-03-02T01:52:22;6.90;99.90
11043;DHT22;5574;48.786;10.120;2024-03-02T01:54:50;6.90;99.90
11043;DHT22;5574;48.786;10.120;2024-03-02T01:57:17;6.90;99.90
11043;DHT22;5574;48.786;10.120;2024-03-02T01:59:44;6.90;99.90
11043;DHT22;5574;48.786;10.120;2024-03-02T02:02:13;6.90;99.90
11043;DHT22;5574;48.786;10.120;2024-03-02T02:04:39;6.90;99.90
11043;DHT22;5574;48.786;10.120;2024-03-02T02:07:06;6.90;99.90
11043;DHT22;5574;48.786;10.120;2024-03-02T02:09:33;6.90;99.90
11043;DHT22;5574;48.786;10.120;2024-03-02T02:12:01;6.90;99.90
11043;DHT22;5574;48.786;10.120;2024-03-02T02:14:29;7.00;99.90
11043;DHT22;5574;48.786;10.120;2024-03-02T02:16:55;6.90;99.90
11043;DHT22;5574;48.786;10.120;2024-03-02T02:19:22;6.90;99.90
11043;DHT22;5574;48.786;10.120;2024-03-02T02:21:50;6.90;99.90
11043;DHT22;5574;48.786;10.120;2024-03-02T02:24:17;6.90;99.90
11043;DHT22;5574;48.786;10.120;2024-03-02T02:26:43;6.80;99.90
11043;DHT22;5574;48.786;10.120;2024-03-02T02:29:10;6.80;99.90
11043;DHT22;5574;48.786;10.120;2024-03-02T02:31:37;6.80;99.90
11043;DHT22;5574;48.786;10.120;2024-03-02T02:34:04;6.90;99.90
11043;DHT22;5574;48.786;10.120;2024-03-02T02:36:31;6.80;99.90
11043;DHT22;5574;48.786;10.120;2024-03-02T02:39:02;6.80;99.90
11043;DHT22;5574;48.786;10.120;2024-03-02T02:41:29;6.80;99.90
11043;DHT22;5574;48.786;10.120;2024-03-02T02:43:56;6.80;99.90
11043;DHT22;5574;48.786;10.120;2024-03-02T02:46:23;6.80;99.90
11043;DHT22;5574;48.786;10.120;2024-03-02T02:48:50;6.80;99.90
11043;DHT22;5574;48.786;10.120;2024-03-02T02:51:18;6.80;99.90
11043;DHT22;5574;48.786;10.120;2024-03-02T02:53:45;6.80;99.90
11043;DHT22;5574;48.786;10.120;2024-03-02T02:56:13;6.80;99.90
11043;DHT22;5574;48.786;10.120;2024-03-02T02:58:40;6.80;99.90
11043;DHT22;5574;48.786;10.120;2024-03-02T03:01:07;6.80;99.90
11043;DHT22;5574;48.786;10.120;2024-03-02T03:03:34;6.80;99.90
11043;DHT22;5574;48.786;10.120;2024-03-02T03:06:00;6.70;99.90
11043;DHT22;5574;48.786;10.120;2024-03-02T03:08:27;6.70;99.90
11043;DHT22;5574;48.786;10.120;2024-03-02T03:10:54;6.70;99.90
11043;DHT22;5574;48.786;10.120;2024-03-02T03:13:22;6.80;99.90
11043;DHT22;5574;48.786;10.120;2024-03-02T03:15:49;6.80;99.90
11043;DHT22;5574;48.786;10.120;2024-03-02T03:18:15;6.80;99.90
11043;DHT22;5574;48.786;10.120;2024-03-02T03:20:42;6.80;99.90
11043;DHT22;5574;48.786;10.120;2024-03-02T03:23:09;6.70;99.90
11043;DHT22;5574;48.786;10.120;2024-03-02T03:25:40;6.70;99.90
11043;DHT22;5574;48.786;10.120;2024-03-02T03:28:07;6.70;99.90
11043;DHT22;5574;48.786;10.120;2024-03-02T03:30:36;6.70;99.90
11043;DHT22;5574;48.786;10.120;2024-03-02T03:33:03;6.60;99.90
11043;DHT22;5574;48.786;10.120;2024-03-02T03:35:31;6.60;99.90
11043;DHT22;5574;48.786;10.120;2024-03-02T03:37:58;6.60;99.90
11043;DHT22;5574;48.786;10.120;2024-03-02T03:40:24;6.60;99.90
11043;DHT22;5574;48.786;10.120;2024-03-02T03:42:51;6.60;99.90
11043;DHT22;5574;48.786;10.120;2024-03-02T03:45:18;6.50;99.90
11043;DHT22;5574;48.786;10.120;2024-03-02T03:47:46;6.50;99.90
11043;DHT22;5574;48.786;10.120;2024-03-02T03:50:13;6.50;99.90
11043;DHT22;5574;48.786;10.120;2024-03-02T03:52:40;6.50;99.90
11043;DHT22;5574;48.786;10.120;2024-03-02T03:55:07;6.50;99.90
11043;DHT22;5574;48.786;10.120;2024-03-02T03:57:34;6.40;99.90
11043;DHT22;5574;48.786;10.120;2024-03-02T04:00:00;6.50;99.90
11043;DHT22;5574;48.786;10.120;2024-03-02T04:02:27;6.40;99.90
11043;DHT22;5574;48.786;10.120;2024-03-02T04:04:55;6.40;99.90
11043;DHT22;5574;48.786;10.120;2024-03-02T04:07:21;6.30;99.90
11043;DHT22;5574;48.786;10.120;2024-03-02T04:09:48;6.30;99.90
11043;DHT22;5574;48.786;10.120;2024-03-02T04:12:15;6.30;99.90
11043;DHT22;5574;48.786;10.120;2024-03-02T04:14:41;6.30;99.90
11043;DHT22;5574;48.786;10.120;2024-03-02T04:17:08;6.20;99.90
11043;DHT22;5574;48.786;10.120;2024-03-02T04:19:35;6.20;99.90
11043;DHT22;5574;48.786;10.120;2024-03-02T04:22:03;6.10;99.90
11043;DHT22;5574;48.786;10.120;2024-03-02T04:24:30;6.10;99.90
11043;DHT22;5574;48.786;10.120;2024-03-02T04:26:57;6.10;99.90
11043;DHT22;5574;48.786;10.120;2024-03-02T04:29:23;6.10;99.90
11043;DHT22;5574;48.786;10.120;2024-03-02T04:31:50;6.00;99.90
11043;DHT22;5574;48.786;10.120;2024-03-02T04:34:17;6.00;99.90
11043;DHT22;5574;48.786;10.120;2024-03-02T04:36:43;6.00;99.90
11043;DHT22;5574;48.786;10.120;2024-03-02T04:39:11;6.10;99.90
11043;DHT22;5574;48.786;10.120;2024-03-02T04:41:38;6.10;99.90
11043;DHT22;5574;48.786;10.120;2024-03-02T04:44:05;6.10;99.90
11043;DHT22;5574;48.786;10.120;2024-03-02T04:46:33;6.10;99.90
11043;DHT22;5574;48.786;10.120;2024-03-02T04:49:00;6.10;99.90
11043;DHT22;5574;48.786;10.120;2024-03-02T04:51:26;6.10;99.90
11043;DHT22;5574;48.786;10.120;2024-03-02T04:53:53;6.10;99.90
11043;DHT22;5574;48.786;10.120;2024-03-02T04:56:21;6.10;99.90
11043;DHT22;5574;48.786;10.120;2024-03-02T04:59:09;6.00;99.90
11043;DHT22;5574;48.786;10.120;2024-03-02T05:01:35;6.00;99.90
11043;DHT22;5574;48.786;10.120;2024-03-02T05:04:02;6.00;99.90
11043;DHT22;5574;48.786;10.120;2024-03-02T05:06:29;6.00;99.90
11043;DHT22;5574;48.786;10.120;2024-03-02T05:08:56;6.10;99.90
11043;DHT22;5574;48.786;10.120;2024-03-02T05:11:24;6.10;99.90
11043;DHT22;5574;48.786;10.120;2024-03-02T05:14:24;6.10;99.90
11043;DHT22;5574;48.786;10.120;2024-03-02T05:16:50;6.10;99.90
11043;DHT22;5574;48.786;10.120;2024-03-02T05:19:17;6.10;99.90
11043;DHT22;5574;48.786;10.120;2024-03-02T05:21:43;6.10;99.90
11043;DHT22;5574;48.786;10.120;2024-03-02T05:24:10;6.10;99.90
11043;DHT22;5574;48.786;10.120;2024-03-02T05:26:38;6.10;99.90
11043;DHT22;5574;48.786;10.120;2024-03-02T05:29:05;6.10;99.90
11043;DHT22;5574;48.786;10.120;2024-03-02T05:31:31;6.20;99.90
11043;DHT22;5574;48.786;10.120;2024-03-02T05:33:58;6.10;99.90
11043;DHT22;5574;48.786;10.120;2024-03-02T05:36:25;6.20;99.90
11043;DHT22;5574;48.786;10.120;2024-03-02T05:38:51;6.10;99.90
11043;DHT22;5574;48.786;10.120;2024-03-02T05:41:18;6.20;99.90
11043;DHT22;5574;48.786;10.120;2024-03-02T05:43:46;6.00;99.90
11043;DHT22;5574;48.786;10.120;2024-03-02T05:46:13;5.90;99.90
11043;DHT22;5574;48.786;10.120;2024-03-02T05:48:39;6.00;99.90
11043;DHT22;5574;48.786;10.120;2024-03-02T05:51:06;6.00;99.90
11043;DHT22;5574;48.786;10.120;2024-03-02T05:53:33;6.00;99.90
11043;DHT22;5574;48.786;10.120;2024-03-02T05:56:00;6.00;99.90
11043;DHT22;5574;48.786;10.120;2024-03-02T05:58:26;5.90;99.90
11043;DHT22;5574;48.786;10.120;2024-03-02T06:01:04;5.90;99.90
11043;DHT22;5574;48.786;10.120;2024-03-02T06:03:31;5.90;99.90
11043;DHT22;5574;48.786;10.120;2024-03-02T06:05:58;5.90;99.90
11043;DHT22;5574;48.786;10.120;2024-03-02T06:08:25;5.90;99.90
11043;DHT22;5574;48.786;10.120;2024-03-02T06:10:52;5.90;99.90
11043;DHT22;5574;48.786;10.120;2024-03-02T06:13:18;5.90;99.90
11043;DHT22;5574;48.786;10.120;2024-03-02T06:15:45;5.90;99.90
11043;DHT22;5574;48.786;10.120;2024-03-02T06:18:13;6.00;99.90
11043;DHT22;5574;48.786;10.120;2024-03-02T06:20:40;6.00;99.90
11043;DHT22;5574;48.786;10.120;2024-03-02T06:23:07;6.00;99.90
11043;DHT22;5574;48.786;10.120;2024-03-02T06:25:33;6.10;99.90
11043;DHT22;5574;48.786;10.120;2024-03-02T06:28:00;6.10;99.90
11043;DHT22;5574;48.786;10.120;2024-03-02T06:30:27;6.10;99.90
11043;DHT22;5574;48.786;10.120;2024-03-02T06:32:53;6.10;99.90
11043;DHT22;5574;48.786;10.120;2024-03-02T06:35:21;6.20;99.90
11043;DHT22;5574;48.786;10.120;2024-03-02T06:37:48;6.20;99.90
11043;DHT22;5574;48.786;10.120;2024-03-02T06:40:15;6.20;99.90
11043;DHT22;5574;48.786;10.120;2024-03-02T06:42:42;6.30;99.90
11043;DHT22;5574;48.786;10.120;2024-03-02T06:45:08;6.30;99.90
11043;DHT22;5574;48.786;10.120;2024-03-02T06:47:35;6.30;99.90
11043;DHT22;5574;48.786;10.120;2024-03-02T06:50:02;6.30;99.90
11043;DHT22;5574;48.786;10.120;2024-03-02T06:52:30;6.40;99.90
11043;DHT22;5574;48.786;10.120;2024-03-02T06:54:56;6.40;99.90
11043;DHT22;5574;48.786;10.120;2024-03-02T06:57:23;6.40;99.90
11043;DHT22;5574;48.786;10.120;2024-03-02T06:59:50;6.40;99.90
11043;DHT22;5574;48.786;10.120;2024-03-02T07:02:19;6.50;99.90
11043;DHT22;5574;48.786;10.120;2024-03-02T07:04:46;6.50;99.90
11043;DHT22;5574;48.786;10.120;2024-03-02T07:07:13;6.60;99.90
11043;DHT22;5574;48.786;10.120;2024-03-02T07:09:41;6.60;99.90
11043;DHT22;5574;48.786;10.120;2024-03-02T07:12:07;6.70;99.90
11043;DHT22;5574;48.786;10.120;2024-03-02T07:14:35;6.70;99.90
11043;DHT22;5574;48.786;10.120;2024-03-02T07:17:19;6.80;99.90
11043;DHT22;5574;48.786;10.120;2024-03-02T07:19:45;6.80;99.90
11043;DHT22;5574;48.786;10.120;2024-03-02T07:22:13;6.90;99.90
11043;DHT22;5574;48.786;10.120;2024-03-02T07:24:41;6.90;99.90
11043;DHT22;5574;48.786;10.120;2024-03-02T07:27:08;6.90;99.90
11043;DHT22;5574;48.786;10.120;2024-03-02T07:29:36;7.00;99.90
11043;DHT22;5574;48.786;10.120;2024-03-02T07:32:03;7.10;99.90
11043;DHT22;5574;48.786;10.120;2024-03-02T07:34:29;7.10;99.90
11043;DHT22;5574;48.786;10.120;2024-03-02T07:36:56;7.20;99.90
11043;DHT22;5574;48.786;10.120;2024-03-02T07:39:24;7.20;99.90
11043;DHT22;5574;48.786;10.120;2024-03-02T07:41:52;7.20;99.90
11043;DHT22;5574;48.786;10.120;2024-03-02T07:44:19;7.30;99.90
11043;DHT22;5574;48.786;10.120;2024-03-02T07:46:46;7.30;99.90
11043;DHT22;5574;48.786;10.120;2024-03-02T07:49:15;7.40;99.90
11043;DHT22;5574;48.786;10.120;2024-03-02T07:51:42;7.40;99.90
11043;DHT22;5574;48.786;10.120;2024-03-02T07:54:09;7.60;99.90
11043;DHT22;5574;48.786;10.120;2024-03-02T07:56:36;7.70;99.90
11043;DHT22;5574;48.786;10.120;2024-03-02T07:59:04;7.90;99.90
11043;DHT22;5574;48.786;10.120;2024-03-02T08:01:32;8.10;99.90
11043;DHT22;5574;48.786;10.120;2024-03-02T08:03:59;8.20;99.90
11043;DHT22;5574;48.786;10.120;2024-03-02T08:06:27;8.40;99.90
11043;DHT22;5574;48.786;10.120;2024-03-02T08:08:54;8.50;99.90
11043;DHT22;5574;48.786;10.120;2024-03-02T08:11:21;8.60;99.90
11043;DHT22;5574;48.786;10.120;2024-03-02T08:13:48;8.80;99.90
11043;DHT22;5574;48.786;10.120;2024-03-02T08:16:16;8.90;99.90
11043;DHT22;5574;48.786;10.120;2024-03-02T08:18:45;9.00;99.90
11043;DHT22;5574;48.786;10.120;2024-03-02T08:21:12;9.00;99.90
11043;DHT22;5574;48.786;10.120;2024-03-02T08:23:39;9.00;99.90
11043;DHT22;5574;48.786;10.120;2024-03-02T08:26:07;9.10;99.90
11043;DHT22;5574;48.786;10.120;2024-03-02T08:28:34;9.10;99.90
11043;DHT22;5574;48.786;10.120;2024-03-02T08:31:02;9.20;99.90
11043;DHT22;5574;48.786;10.120;2024-03-02T08:33:30;9.20;99.90
11043;DHT22;5574;48.786;10.120;2024-03-02T08:35:57;9.30;99.90
11043;DHT22;5574;48.786;10.120;2024-03-02T08:38:24;9.40;99.90
11043;DHT22;5574;48.786;10.120;2024-03-02T08:40:51;9.40;99.90
11043;DHT22;5574;48.786;10.120;2024-03-02T08:43:18;9.30;99.90
11043;DHT22;5574;48.786;10.120;2024-03-02T08:45:44;9.30;99.90
11043;DHT22;5574;48.786;10.120;2024-03-02T08:48:11;9.30;99.90
11043;DHT22;5574;48.786;10.120;2024-03-02T08:50:39;9.30;99.90
11043;DHT22;5574;48.786;10.120;2024-03-02T08:53:06;9.30;99.90
11043;DHT22;5574;48.786;10.120;2024-03-02T08:55:32;9.10;99.90
11043;DHT22;5574;48.786;10.120;2024-03-02T08:57:59;9.10;99.90
11043;DHT22;5574;48.786;10.120;2024-03-02T09:00:26;9.00;99.90
11043;DHT22;5574;48.786;10.120;2024-03-02T09:02:54;8.80;99.90
11043;DHT22;5574;48.786;10.120;2024-03-02T09:05:21;8.70;99.90
11043;DHT22;5574;48.786;10.120;2024-03-02T09:07:49;8.80;99.90
11043;DHT22;5574;48.786;10.120;2024-03-02T09:10:16;8.80;99.90
11043;DHT22;5574;48.786;10.120;2024-03-02T09:12:43;8.80;99.90
11043;DHT22;5574;48.786;10.120;2024-03-02T09:15:09;8.90;99.90
11043;DHT22;5574;48.786;10.120;2024-03-02T09:17:36;8.90;99.90
11043;DHT22;5574;48.786;10.120;2024-03-02T09:20:04;9.10;99.90
11043;DHT22;5574;48.786;10.120;2024-03-02T09:22:30;9.30;99.90
11043;DHT22;5574;48.786;10.120;2024-03-02T09:24:58;9.50;99.90
11043;DHT22;5574;48.786;10.120;2024-03-02T09:27:25;9.60;99.90
11043;DHT22;5574;48.786;10.120;2024-03-02T09:29:52;9.80;99.90
11043;DHT22;5574;48.786;10.120;2024-03-02T09:32:19;10.10;99.90
11043;DHT22;5574;48.786;10.120;2024-03-02T09:34:45;10.50;99.90
11043;DHT22;5574;48.786;10.120;2024-03-02T09:37:13;10.90;99.90
11043;DHT22;5574;48.786;10.120;2024-03-02T09:39:40;11.10;99.90
11043;DHT22;5574;48.786;10.120;2024-03-02T09:42:11;11.50;99.90
11043;DHT22;5574;48.786;10.120;2024-03-02T09:44:39;11.80;99.90
11043;DHT22;5574;48.786;10.120;2024-03-02T09:47:07;11.60;99.90
11043;DHT22;5574;48.786;10.120;2024-03-02T09:49:34;11.80;99.90
11043;DHT22;5574;48.786;10.120;2024-03-02T09:52:03;11.80;99.90
11043;DHT22;5574;48.786;10.120;2024-03-02T09:54:31;12.00;99.90
11043;DHT22;5574;48.786;10.120;2024-03-02T09:56:57;12.10;99.90
11043;DHT22;5574;48.786;10.120;2024-03-02T09:59:26;12.00;99.90
11043;DHT22;5574;48.786;10.120;2024-03-02T10:01:57;12.20;99.90
11043;DHT22;5574;48.786;10.120;2024-03-02T10:04:25;12.50;99.90
11043;DHT22;5574;48.786;10.120;2024-03-02T10:07:09;12.70;99.90
11043;DHT22;5574;48.786;10.120;2024-03-02T10:09:37;12.90;99.90
11043;DHT22;5574;48.786;10.120;2024-03-02T10:12:05;13.00;99.90
11043;DHT22;5574;48.786;10.120;2024-03-02T10:14:33;13.00;99.90
11043;DHT22;5574;48.786;10.120;2024-03-02T10:17:04;13.20;99.90
11043;DHT22;5574;48.786;10.120;2024-03-02T10:19:33;12.80;99.90
11043;DHT22;5574;48.786;10.120;2024-03-02T10:22:01;12.40;99.90
11043;DHT22;5574;48.786;10.120;2024-03-02T10:24:35;12.20;99.90
11043;DHT22;5574;48.786;10.120;2024-03-02T10:27:08;12.30;99.90
11043;DHT22;5574;48.786;10.120;2024-03-02T10:29:40;12.40;99.90
11043;DHT22;5574;48.786;10.120;2024-03-02T10:32:09;12.50;99.90
11043;DHT22;5574;48.786;10.120;2024-03-02T10:34:36;12.50;99.90
11043;DHT22;5574;48.786;10.120;2024-03-02T10:37:03;12.60;99.90
11043;DHT22;5574;48.786;10.120;2024-03-02T10:39:31;12.80;99.90
11043;DHT22;5574;48.786;10.120;2024-03-02T10:42:02;12.90;99.90
11043;DHT22;5574;48.786;10.120;2024-03-02T10:44:30;13.00;99.90
11043;DHT22;5574;48.786;10.120;2024-03-02T10:47:00;12.80;99.90
11043;DHT22;5574;48.786;10.120;2024-03-02T10:49:29;13.10;99.90
11043;DHT22;5574;48.786;10.120;2024-03-02T10:51:56;12.70;99.90
11043;DHT22;5574;48.786;10.120;2024-03-02T10:54:22;12.80;99.90
11043;DHT22;5574;48.786;10.120;2024-03-02T10:56:53;12.90;99.90
11043;DHT22;5574;48.786;10.120;2024-03-02T10:59:26;12.80;99.90
11043;DHT22;5574;48.786;10.120;2024-03-02T11:01:56;13.10;99.90
11043;DHT22;5574;48.786;10.120;2024-03-02T11:04:26;12.90;99.90
11043;DHT22;5574;48.786;10.120;2024-03-02T11:06:56;12.90;99.90
11043;DHT22;5574;48.786;10.120;2024-03-02T11:09:26;12.70;99.90
11043;DHT22;5574;48.786;10.120;2024-03-02T11:12:00;12.80;99.90
11043;DHT22;5574;48.786;10.120;2024-03-02T11:14:30;12.70;99.90
11043;DHT22;5574;48.786;10.120;2024-03-02T11:16:57;12.70;99.90
11043;DHT22;5574;48.786;10.120;2024-03-02T11:19:25;12.70;99.90
11043;DHT22;5574;48.786;10.120;2024-03-02T11:21:54;12.60;99.90
11043;DHT22;5574;48.786;10.120;2024-03-02T11:24:33;12.50;99.90
11043;DHT22;5574;48.786;10.120;2024-03-02T11:27:01;12.20;99.90
11043;DHT22;5574;48.786;10.120;2024-03-02T11:29:44;12.40;99.90
11043;DHT22;5574;48.786;10.120;2024-03-02T11:32:15;12.30;99.90
11043;DHT22;5574;48.786;10.120;2024-03-02T11:34:46;12.50;99.90
11043;DHT22;5574;48.786;10.120;2024-03-02T11:37:13;12.50;99.90
11043;DHT22;5574;48.786;10.120;2024-03-02T11:39:40;12.50;99.90
11043;DHT22;5574;48.786;10.120;2024-03-02T11:42:08;12.70;99.90
11043;DHT22;5574;48.786;10.120;2024-03-02T11:44:36;12.90;99.90
11043;DHT22;5574;48.786;10.120;2024-03-02T11:47:06;13.20;99.90
11043;DHT22;5574;48.786;10.120;2024-03-02T11:49:40;13.50;99.90
11043;DHT22;5574;48.786;10.120;2024-03-02T11:52:10;13.80;99.90
11043;DHT22;5574;48.786;10.120;2024-03-02T11:54:37;14.10;99.90
11043;DHT22;5574;48.786;10.120;2024-03-02T11:57:06;14.20;99.90
11043;DHT22;5574;48.786;10.120;2024-03-02T11:59:33;14.40;99.90
11043;DHT22;5574;48.786;10.120;2024-03-02T12:02:01;14.40;99.90
11043;DHT22;5574;48.786;10.120;2024-03-02T12:04:29;14.30;99.90
11043;DHT22;5574;48.786;10.120;2024-03-02T12:06:56;14.30;99.90
11043;DHT22;5574;48.786;10.120;2024-03-02T12:09:26;14.00;99.90
11043;DHT22;5574;48.786;10.120;2024-03-02T12:12:04;14.10;99.90
11043;DHT22;5574;48.786;10.120;2024-03-02T12:14:31;14.20;99.90
11043;DHT22;5574;48.786;10.120;2024-03-02T12:16:58;14.40;99.90
11043;DHT22;5574;48.786;10.120;2024-03-02T12:19:24;14.30;99.80
11043;DHT22;5574;48.786;10.120;2024-03-02T12:21:51;14.30;99.90
11043;DHT22;5574;48.786;10.120;2024-03-02T12:24:18;14.20;99.30
11043;DHT22;5574;48.786;10.120;2024-03-02T12:26:46;14.30;99.80
11043;DHT22;5574;48.786;10.120;2024-03-02T12:29:13;14.30;99.50
11043;DHT22;5574;48.786;10.120;2024-03-02T12:31:40;14.30;99.90
11043;DHT22;5574;48.786;10.120;2024-03-02T12:34:08;14.40;99.40
11043;DHT22;5574;48.786;10.120;2024-03-02T12:36:37;14.20;98.20
11043;DHT22;5574;48.786;10.120;2024-03-02T12:39:04;14.40;98.30
11043;DHT22;5574;48.786;10.120;2024-03-02T12:41:31;14.40;98.40
11043;DHT22;5574;48.786;10.120;2024-03-02T12:43:59;14.50;97.90
11043;DHT22;5574;48.786;10.120;2024-03-02T12:46:25;14.30;97.30
11043;DHT22;5574;48.786;10.120;2024-03-02T12:48:52;14.40;98.30
11043;DHT22;5574;48.786;10.120;2024-03-02T12:51:19;14.50;98.80
11043;DHT22;5574;48.786;10.120;2024-03-02T12:53:53;14.50;98.10
11043;DHT22;5574;48.786;10.120;2024-03-02T12:56:19;14.40;97.10
11043;DHT22;5574;48.786;10.120;2024-03-02T12:58:46;14.30;97.00
11043;DHT22;5574;48.786;10.120;2024-03-02T13:01:15;13.90;96.40
11043;DHT22;5574;48.786;10.120;2024-03-02T13:03:44;13.90;97.60
11043;DHT22;5574;48.786;10.120;2024-03-02T13:06:11;14.10;97.50
11043;DHT22;5574;48.786;10.120;2024-03-02T13:08:38;14.20;97.90
11043;DHT22;5574;48.786;10.120;2024-03-02T13:11:05;14.00;97.40
11043;DHT22;5574;48.786;10.120;2024-03-02T13:13:32;13.80;97.40
11043;DHT22;5574;48.786;10.120;2024-03-02T13:16:00;13.80;97.90
11043;DHT22;5574;48.786;10.120;2024-03-02T13:18:30;13.70;97.80
11043;DHT22;5574;48.786;10.120;2024-03-02T13:20:56;13.50;97.70
11043;DHT22;5574;48.786;10.120;2024-03-02T13:23:24;13.60;97.90
11043;DHT22;5574;48.786;10.120;2024-03-02T13:25:51;13.80;98.50
11043;DHT22;5574;48.786;10.120;2024-03-02T13:28:17;13.90;98.80
11043;DHT22;5574;48.786;10.120;2024-03-02T13:30:44;13.90;99.10
11043;DHT22;5574;48.786;10.120;2024-03-02T13:33:11;14.10;99.20
11043;DHT22;5574;48.786;10.120;2024-03-02T13:35:39;14.30;99.80
11043;DHT22;5574;48.786;10.120;2024-03-02T13:38:05;14.20;99.60
11043;DHT22;5574;48.786;10.120;2024-03-02T13:40:32;14.20;99.80
11043;DHT22;5574;48.786;10.120;2024-03-02T13:43:01;14.20;99.30
11043;DHT22;5574;48.786;10.120;2024-03-02T13:45:28;14.20;99.70
11043;DHT22;5574;48.786;10.120;2024-03-02T13:47:54;14.10;99.90
11043;DHT22;5574;48.786;10.120;2024-03-02T13:50:21;14.10;99.90
11043;DHT22;5574;48.786;10.120;2024-03-02T13:52:49;14.00;99.90
11043;DHT22;5574;48.786;10.120;2024-03-02T13:55:16;13.80;99.10
11043;DHT22;5574;48.786;10.120;2024-03-02T13:57:43;13.70;99.90
11043;DHT22;5574;48.786;10.120;2024-03-02T14:00:10;13.80;99.80
11043;DHT22;5574;48.786;10.120;2024-03-02T14:02:37;13.70;99.90
11043;DHT22;5574;48.786;10.120;2024-03-02T14:05:05;13.80;99.90
11043;DHT22;5574;48.786;10.120;2024-03-02T14:07:33;13.90;99.90
11043;DHT22;5574;48.786;10.120;2024-03-02T14:10:01;14.00;99.90
11043;DHT22;5574;48.786;10.120;2024-03-02T14:12:27;14.20;99.90
11043;DHT22;5574;48.786;10.120;2024-03-02T14:14:54;14.20;99.90
11043;DHT22;5574;48.786;10.120;2024-03-02T14:17:23;14.10;99.90
11043;DHT22;5574;48.786;10.120;2024-03-02T14:19:50;14.00;99.90
11043;DHT22;5574;48.786;10.120;2024-03-02T14:22:17;14.00;99.90
11043;DHT22;5574;48.786;10.120;2024-03-02T14:24:44;14.00;99.90
11043;DHT22;5574;48.786;10.120;2024-03-02T14:27:12;13.90;99.90
11043;DHT22;5574;48.786;10.120;2024-03-02T14:29:40;13.90;99.90
11043;DHT22;5574;48.786;10.120;2024-03-02T14:32:06;13.90;99.90
11043;DHT22;5574;48.786;10.120;2024-03-02T14:34:33;14.00;99.90
11043;DHT22;5574;48.786;10.120;2024-03-02T14:37:00;14.00;99.90
11043;DHT22;5574;48.786;10.120;2024-03-02T14:39:28;13.90;99.90
11043;DHT22;5574;48.786;10.120;2024-03-02T14:41:55;13.80;99.90
11043;DHT22;5574;48.786;10.120;2024-03-02T14:44:23;13.70;99.90
11043;DHT22;5574;48.786;10.120;2024-03-02T14:46:50;13.70;99.90
11043;DHT22;5574;48.786;10.120;2024-03-02T14:49:17;13.50;99.90
11043;DHT22;5574;48.786;10.120;2024-03-02T14:51:44;13.40;99.90
11043;DHT22;5574;48.786;10.120;2024-03-02T14:54:11;13.20;99.90
11043;DHT22;5574;48.786;10.120;2024-03-02T14:56:37;13.30;99.90
11043;DHT22;5574;48.786;10.120;2024-03-02T14:59:04;13.10;99.90
11043;DHT22;5574;48.786;10.120;2024-03-02T15:01:32;13.10;99.90
11043;DHT22;5574;48.786;10.120;2024-03-02T15:03:59;13.10;99.90
11043;DHT22;5574;48.786;10.120;2024-03-02T15:06:25;13.20;99.90
11043;DHT22;5574;48.786;10.120;2024-03-02T15:08:52;13.20;99.90
11043;DHT22;5574;48.786;10.120;2024-03-02T15:11:20;13.30;99.90
11043;DHT22;5574;48.786;10.120;2024-03-02T15:13:47;13.30;99.90
11043;DHT22;5574;48.786;10.120;2024-03-02T15:16:14;13.00;99.90
11043;DHT22;5574;48.786;10.120;2024-03-02T15:18:42;13.00;99.90
11043;DHT22;5574;48.786;10.120;2024-03-02T15:21:08;13.00;99.90
11043;DHT22;5574;48.786;10.120;2024-03-02T15:23:35;13.00;99.90
11043;DHT22;5574;48.786;10.120;2024-03-02T15:26:02;12.90;99.90
11043;DHT22;5574;48.786;10.120;2024-03-02T15:28:29;12.90;99.90
11043;DHT22;5574;48.786;10.120;2024-03-02T15:30:55;12.80;99.90
11043;DHT22;5574;48.786;10.120;2024-03-02T15:33:22;12.70;99.90
11043;DHT22;5574;48.786;10.120;2024-03-02T15:35:52;12.70;99.90
11043;DHT22;5574;48.786;10.120;2024-03-02T15:38:19;12.60;99.90
11043;DHT22;5574;48.786;10.120;2024-03-02T15:40:45;12.60;99.90
11043;DHT22;5574;48.786;10.120;2024-03-02T15:43:12;12.50;99.90
11043;DHT22;5574;48.786;10.120;2024-03-02T15:45:39;12.50;99.90